createdAt,value
2019-01-25T00:00:30.840Z,98146.37
2019-01-25T00:03:09.874Z,98138.77
2019-01-25T00:05:43.029Z,98143.75
2019-01-25T00:08:16.715Z,98139.87
2019-01-25T00:10:48.733Z,98151.64
2019-01-25T00:13:22.230Z,98147.67
2019-01-25T00:15:55.374Z,98152.95
2019-01-25T00:18:26.628Z,98150.21
2019-01-25T00:20:58.366Z,98157.25
2019-01-25T00:23:29.636Z,98154.83
2019-01-25T00:26:01.303Z,98150.70
2019-01-25T00:28:34.419Z,98150.58
2019-01-25T00:31:07.528Z,98153.39
2019-01-25T00:33:40.414Z,98158.14
2019-01-25T00:36:14.597Z,98161.00
2019-01-25T00:38:46.481Z,98167.72
2019-01-25T00:41:19.345Z,98163.98
2019-01-25T00:43:52.992Z,98160.52
2019-01-25T00:46:24.609Z,98166.05
2019-01-25T00:48:56.631Z,98165.42
2019-01-25T00:51:28.518Z,98166.73
2019-01-25T00:54:00.518Z,98162.11
2019-01-25T00:56:31.798Z,98170.33
2019-01-25T00:59:04.527Z,98168.05
2019-01-25T01:01:37.681Z,98167.42
2019-01-25T01:04:10.295Z,98164.97
2019-01-25T01:06:42.561Z,98165.34
2019-01-25T01:09:14.759Z,98162.42
2019-01-25T01:11:46.580Z,98163.21
2019-01-25T01:14:17.860Z,98172.37
2019-01-25T01:16:51.525Z,98172.01
2019-01-25T01:19:22.890Z,98174.50
2019-01-25T01:21:56.694Z,98172.01
2019-01-25T01:24:30.718Z,98172.33
2019-01-25T01:27:04.621Z,98171.72
2019-01-25T01:29:40.200Z,98167.95
2019-01-25T01:32:12.513Z,98167.79
2019-01-25T01:34:43.806Z,98167.95
2019-01-25T01:37:17.787Z,98170.41
2019-01-25T01:39:52.714Z,98167.09
2019-01-25T01:42:25.751Z,98164.97
2019-01-25T01:44:57.890Z,98156.95
2019-01-25T01:47:30.675Z,98154.70
2019-01-25T01:50:04.482Z,98150.65
2019-01-25T01:52:35.748Z,98147.26
2019-01-25T01:55:10.251Z,98153.05
2019-01-25T01:57:44.083Z,98146.31
2019-01-25T02:00:22.766Z,98148.19
2019-01-25T02:02:54.784Z,98155.09
2019-01-25T02:05:28.847Z,98159.70
2019-01-25T02:08:02.831Z,98151.41
2019-01-25T02:10:34.794Z,98156.02
2019-01-25T02:13:06.879Z,98154.38
2019-01-25T02:15:38.782Z,98150.33
2019-01-25T02:18:10.138Z,98147.22
2019-01-25T02:20:42.898Z,98154.88
2019-01-25T02:23:16.971Z,98150.66
2019-01-25T02:25:48.272Z,98140.92
2019-01-25T02:28:22.384Z,98149.84
2019-01-25T02:30:55.951Z,98155.89
2019-01-25T02:33:29.954Z,98155.69
2019-01-25T02:36:03.952Z,98155.89
2019-01-25T02:38:37.875Z,98157.00
2019-01-25T02:41:09.443Z,98149.77
2019-01-25T02:43:43.017Z,98158.27
2019-01-25T02:46:17.141Z,98158.27
2019-01-25T02:48:51.141Z,98162.81
2019-01-25T02:51:25.158Z,98162.81
2019-01-25T02:53:57.127Z,98168.50
2019-01-25T02:56:30.103Z,98169.25
2019-01-25T02:59:01.363Z,98174.16
2019-01-25T03:01:39.680Z,98174.44
2019-01-25T03:04:11.091Z,98170.20
2019-01-25T03:06:43.197Z,98169.63
2019-01-25T03:09:17.046Z,98176.00
2019-01-25T03:11:48.304Z,98174.08
2019-01-25T03:14:21.449Z,98180.75
2019-01-25T03:16:52.881Z,98173.68
2019-01-25T03:19:24.218Z,98176.98
2019-01-25T03:21:58.131Z,98175.39
2019-01-25T03:24:31.429Z,98180.55
2019-01-25T03:27:05.541Z,98173.60
2019-01-25T03:29:39.249Z,98171.06
2019-01-25T03:32:10.707Z,98176.17
2019-01-25T03:34:43.264Z,98172.94
2019-01-25T03:37:15.644Z,98179.48
2019-01-25T03:39:50.244Z,98181.77
2019-01-25T03:42:23.452Z,98177.84
2019-01-25T03:44:58.782Z,98178.66
2019-01-25T03:47:31.447Z,98180.63
2019-01-25T03:50:09.802Z,98181.28
2019-01-25T03:52:42.199Z,98181.77
2019-01-25T03:55:14.038Z,98187.20
2019-01-25T03:57:47.515Z,98189.58
2019-01-25T04:00:21.112Z,98193.02
2019-01-25T04:02:55.485Z,98187.81
2019-01-25T04:05:27.143Z,98187.71
2019-01-25T04:08:00.518Z,98188.47
2019-01-25T04:10:32.354Z,98192.89
2019-01-25T04:13:05.888Z,98194.07
2019-01-25T04:15:39.334Z,98196.69
2019-01-25T04:18:10.676Z,98198.28
2019-01-25T04:20:44.502Z,98199.85
2019-01-25T04:23:16.285Z,98201.36
2019-01-25T04:25:49.471Z,98205.61
2019-01-25T04:28:20.728Z,98210.03
2019-01-25T04:30:54.411Z,98205.09
2019-01-25T04:33:30.048Z,98207.66
2019-01-25T04:36:02.493Z,98205.86
2019-01-25T04:38:34.488Z,98211.46
2019-01-25T04:41:11.782Z,98212.41
2019-01-25T04:43:41.976Z,98215.72
2019-01-25T04:46:15.632Z,98225.37
2019-01-25T04:48:47.160Z,98227.66
2019-01-25T04:51:18.810Z,98227.98
2019-01-25T04:53:53.076Z,98229.09
2019-01-25T04:56:25.492Z,98227.52
2019-01-25T04:58:59.467Z,98231.34
2019-01-25T05:01:30.738Z,98230.64
2019-01-25T05:04:02.028Z,98234.67
2019-01-25T05:06:35.403Z,98236.02
2019-01-25T05:09:09.216Z,98236.59
2019-01-25T05:11:40.680Z,98241.89
2019-01-25T05:14:13.828Z,98251.15
2019-01-25T05:16:45.622Z,98246.63
2019-01-25T05:19:19.747Z,98253.72
2019-01-25T05:21:54.798Z,98254.33
2019-01-25T05:24:27.409Z,98269.48
2019-01-25T05:26:59.380Z,98272.53
2019-01-25T05:29:53.301Z,98269.42
2019-01-25T05:32:24.757Z,98271.41
2019-01-25T05:34:58.840Z,98274.66
2019-01-25T05:37:31.153Z,98274.79
2019-01-25T05:40:05.132Z,98282.30
2019-01-25T05:42:37.809Z,98282.94
2019-01-25T05:45:12.346Z,98282.44
2019-01-25T05:47:45.838Z,98281.70
2019-01-25T05:50:19.847Z,98285.00
2019-01-25T05:52:55.580Z,98291.13
2019-01-25T05:55:27.783Z,98292.74
2019-01-25T05:58:04.401Z,98291.59
2019-01-25T06:00:39.577Z,98294.47
2019-01-25T06:03:15.495Z,98300.77
2019-01-25T06:05:46.826Z,98305.70
2019-01-25T06:08:29.795Z,98308.31
2019-01-25T06:11:03.340Z,98306.06
2019-01-25T06:13:34.922Z,98308.59
2019-01-25T06:16:08.938Z,98304.33
2019-01-25T06:18:42.969Z,98306.00
2019-01-25T06:21:17.024Z,98305.94
2019-01-25T06:23:55.347Z,98309.36
2019-01-25T06:26:28.084Z,98312.03
2019-01-25T06:29:01.983Z,98316.44
2019-01-25T06:31:36.183Z,98324.23
2019-01-25T06:34:09.994Z,98316.31
2019-01-25T06:36:41.345Z,98314.92
2019-01-25T06:39:14.907Z,98324.22
2019-01-25T06:41:48.966Z,98327.25
2019-01-25T06:44:20.283Z,98331.17
2019-01-25T06:46:54.175Z,98332.63
2019-01-25T06:49:28.119Z,98335.91
2019-01-25T06:52:02.143Z,98332.47
2019-01-25T06:54:33.395Z,98336.34
2019-01-25T06:57:19.118Z,98336.65
2019-01-25T06:59:50.388Z,98335.22
2019-01-25T07:02:29.446Z,98337.89
2019-01-25T07:05:01.315Z,98341.55
2019-01-25T07:07:38.469Z,98346.06
2019-01-25T07:10:13.742Z,98350.21
2019-01-25T07:12:46.177Z,98348.98
2019-01-25T07:15:22.826Z,98348.30
2019-01-25T07:17:54.269Z,98351.03
2019-01-25T07:20:28.368Z,98350.35
2019-01-25T07:22:59.723Z,98355.72
2019-01-25T07:25:33.314Z,98353.77
2019-01-25T07:28:07.317Z,98360.93
2019-01-25T07:30:41.329Z,98366.51
2019-01-25T07:33:14.415Z,98368.08
2019-01-25T07:35:46.741Z,98368.42
2019-01-25T07:38:18.349Z,98369.69
2019-01-25T07:40:50.459Z,98379.09
2019-01-25T07:43:21.922Z,98382.06
2019-01-25T07:45:58.866Z,98388.32
2019-01-25T07:48:33.169Z,98389.44
2019-01-25T07:51:06.429Z,98395.47
2019-01-25T07:53:39.719Z,98403.45
2019-01-25T07:56:11.578Z,98407.63
2019-01-25T07:58:42.951Z,98413.56
2019-01-25T08:01:14.281Z,98414.89
2019-01-25T08:03:47.518Z,98413.75
2019-01-25T08:06:23.128Z,98411.62
2019-01-25T08:08:55.597Z,98411.80
2019-01-25T08:11:29.484Z,98409.83
2019-01-25T08:14:03.179Z,98421.77
2019-01-25T08:16:34.486Z,98423.24
2019-01-25T08:19:06.071Z,98426.23
2019-01-25T08:21:39.707Z,98434.49
2019-01-25T08:24:11.054Z,98424.03
2019-01-25T08:26:44.714Z,98427.98
2019-01-25T08:29:17.500Z,98441.29
2019-01-25T08:31:49.392Z,98447.70
2019-01-25T08:34:23.455Z,98446.72
2019-01-25T08:36:56.747Z,98437.97
2019-01-25T08:39:28.041Z,98444.63
2019-01-25T08:41:59.294Z,98450.53
2019-01-25T08:44:32.537Z,98451.41
2019-01-25T08:47:06.507Z,98457.90
2019-01-25T08:49:40.881Z,98456.67
2019-01-25T08:52:13.630Z,98457.62
2019-01-25T08:54:45.612Z,98467.83
2019-01-25T08:57:19.672Z,98462.84
2019-01-25T08:59:51.003Z,98464.17
2019-01-25T09:02:24.587Z,98466.93
2019-01-25T09:04:57.844Z,98473.53
2019-01-25T09:07:29.831Z,98474.76
2019-01-25T09:10:04.937Z,98474.56
2019-01-25T09:12:36.679Z,98478.58
2019-01-25T09:15:15.300Z,98473.70
2019-01-25T09:17:47.680Z,98481.73
2019-01-25T09:20:22.198Z,98476.50
2019-01-25T09:22:55.892Z,98481.09
2019-01-25T09:25:28.865Z,98482.34
2019-01-25T09:28:02.894Z,98480.67
2019-01-25T09:30:34.861Z,98482.61
2019-01-25T09:33:09.040Z,98487.00
2019-01-25T09:35:42.827Z,98489.30
2019-01-25T09:38:18.392Z,98481.21
2019-01-25T09:40:50.852Z,98481.21
2019-01-25T09:43:22.110Z,98481.73
2019-01-25T09:45:57.499Z,98478.74
2019-01-25T09:48:29.824Z,98478.74
2019-01-25T09:51:01.215Z,98479.11
2019-01-25T09:53:35.117Z,98477.80
2019-01-25T09:56:08.021Z,98475.86
2019-01-25T09:58:44.457Z,98478.69
2019-01-25T10:01:18.039Z,98470.19
2019-01-25T10:03:50.983Z,98463.95
2019-01-25T10:06:26.522Z,98466.47
2019-01-25T10:08:58.994Z,98468.64
2019-01-25T10:11:32.727Z,98477.69
2019-01-25T10:14:05.614Z,98466.80
2019-01-25T10:16:39.006Z,98469.16
2019-01-25T10:19:10.914Z,98464.94
2019-01-25T10:21:45.051Z,98473.62
2019-01-25T10:24:18.209Z,98463.23
2019-01-25T10:26:49.913Z,98471.84
2019-01-25T10:29:23.215Z,98472.51
2019-01-25T10:31:55.076Z,98468.25
2019-01-25T10:34:26.413Z,98464.41
2019-01-25T10:36:57.971Z,98450.91
2019-01-25T10:39:31.203Z,98444.55
2019-01-25T10:42:05.496Z,98442.09
2019-01-25T10:44:38.211Z,98447.97
2019-01-25T10:47:11.318Z,98445.69
2019-01-25T10:49:45.157Z,98447.89
2019-01-25T10:52:17.234Z,98449.28
2019-01-25T10:54:49.139Z,98438.34
2019-01-25T10:57:20.397Z,98434.34
2019-01-25T10:59:54.274Z,98433.25
2019-01-25T11:02:27.263Z,98436.80
2019-01-25T11:04:59.268Z,98439.16
2019-01-25T11:07:33.250Z,98443.63
2019-01-25T11:10:07.508Z,98437.61
2019-01-25T11:12:40.909Z,98447.50
2019-01-25T11:15:15.037Z,98449.08
2019-01-25T11:17:48.557Z,98448.80
2019-01-25T11:20:21.921Z,98451.18
2019-01-25T11:22:54.272Z,98457.27
2019-01-25T11:25:33.001Z,98457.28
2019-01-25T11:28:05.928Z,98465.20
2019-01-25T11:30:38.311Z,98469.73
2019-01-25T11:33:10.920Z,98469.48
2019-01-25T11:35:43.312Z,98472.84
2019-01-25T11:38:18.927Z,98464.66
2019-01-25T11:40:51.370Z,98460.79
2019-01-25T11:43:22.659Z,98466.66
2019-01-25T11:45:54.462Z,98469.16
2019-01-25T11:48:27.540Z,98468.05
2019-01-25T11:50:59.494Z,98476.95
2019-01-25T11:53:32.525Z,98481.46
2019-01-25T11:56:08.040Z,98473.54
2019-01-25T11:58:39.392Z,98464.40
2019-01-25T12:01:10.862Z,98465.59
2019-01-25T12:03:42.544Z,98460.72
2019-01-25T12:06:14.491Z,98469.48
2019-01-25T12:08:47.384Z,98462.34
2019-01-25T12:11:18.645Z,98462.72
2019-01-25T12:13:49.913Z,98455.98
2019-01-25T12:16:23.528Z,98453.39
2019-01-25T12:18:57.529Z,98458.92
2019-01-25T12:21:33.075Z,98464.55
2019-01-25T12:24:06.207Z,98457.84
2019-01-25T12:26:37.468Z,98453.77
2019-01-25T12:29:09.798Z,98455.03
2019-01-25T12:31:41.136Z,98458.90
2019-01-25T12:34:12.458Z,98458.98
2019-01-25T12:36:43.927Z,98450.34
2019-01-25T12:39:16.800Z,98458.91
2019-01-25T12:41:50.742Z,98464.77
2019-01-25T12:44:24.771Z,98461.16
2019-01-25T12:46:58.843Z,98456.36
2019-01-25T12:49:31.732Z,98459.35
2019-01-25T12:52:08.410Z,98458.16
2019-01-25T12:54:40.989Z,98465.34
2019-01-25T12:57:14.850Z,98459.39
2019-01-25T12:59:48.843Z,98463.73
2019-01-25T13:02:20.857Z,98464.16
2019-01-25T13:04:53.664Z,98462.35
2019-01-25T13:07:24.939Z,98474.73
2019-01-25T13:09:58.736Z,98461.33
2019-01-25T13:12:32.745Z,98473.84
2019-01-25T13:15:07.505Z,98469.28
2019-01-25T13:17:40.750Z,98473.84
2019-01-25T13:20:18.353Z,98476.53
2019-01-25T13:22:51.798Z,98478.59
2019-01-25T13:25:27.430Z,98483.96
2019-01-25T13:27:59.879Z,98486.27
2019-01-25T13:30:33.493Z,98489.83
2019-01-25T13:33:05.366Z,98486.83
2019-01-25T13:35:37.879Z,98486.63
2019-01-25T13:38:10.964Z,98493.52
2019-01-25T13:40:42.885Z,98507.00
2019-01-25T13:43:14.949Z,98502.38
2019-01-25T13:45:47.915Z,98501.59
2019-01-25T13:48:19.998Z,98501.83
2019-01-25T13:50:52.856Z,98509.83
2019-01-25T13:53:28.400Z,98506.05
2019-01-25T13:56:01.139Z,98515.35
2019-01-25T13:58:36.567Z,98514.00
2019-01-25T14:01:08.998Z,98506.05
2019-01-25T14:03:42.908Z,98509.01
2019-01-25T14:06:16.977Z,98521.67
2019-01-25T14:08:48.496Z,98523.36
2019-01-25T14:11:19.792Z,98522.86
2019-01-25T14:13:53.037Z,98532.50
2019-01-25T14:16:25.417Z,98533.61
2019-01-25T14:18:58.149Z,98534.19
2019-01-25T14:21:32.200Z,98533.38
2019-01-25T14:24:06.289Z,98533.02
2019-01-25T14:26:38.042Z,98529.59
2019-01-25T14:29:11.013Z,98524.20
2019-01-25T14:31:45.072Z,98516.89
2019-01-25T14:34:19.050Z,98522.63
2019-01-25T14:36:53.092Z,98529.19
2019-01-25T14:39:26.117Z,98534.26
2019-01-25T14:41:59.262Z,98541.55
2019-01-25T14:44:31.933Z,98537.03
2019-01-25T14:47:03.223Z,98538.32
2019-01-25T14:49:37.191Z,98533.01
2019-01-25T14:52:10.966Z,98533.27
2019-01-25T14:54:44.312Z,98530.47
2019-01-25T14:57:17.298Z,98530.02
2019-01-25T14:59:49.229Z,98531.93
2019-01-25T15:02:23.226Z,98534.98
2019-01-25T15:04:54.507Z,98532.23
2019-01-25T15:07:26.202Z,98534.19
2019-01-25T15:09:59.303Z,98541.19
2019-01-25T15:12:30.699Z,98539.72
2019-01-25T15:15:04.981Z,98541.86
2019-01-25T15:17:38.289Z,98541.28
2019-01-25T15:20:14.542Z,98534.81
2019-01-25T15:22:46.400Z,98533.30
2019-01-25T15:25:17.666Z,98535.94
2019-01-25T15:27:51.245Z,98533.72
2019-01-25T15:30:27.510Z,98539.64
2019-01-25T15:32:59.359Z,98535.41
2019-01-25T15:35:33.390Z,98530.52
2019-01-25T15:38:07.393Z,98526.16
2019-01-25T15:40:41.503Z,98533.59
2019-01-25T15:43:14.696Z,98530.70
2019-01-25T15:45:46.324Z,98537.64
2019-01-25T15:48:20.482Z,98545.21
2019-01-25T15:50:55.999Z,98544.44
2019-01-25T15:53:28.233Z,98542.36
2019-01-25T15:56:01.484Z,98548.23
2019-01-25T15:58:33.947Z,98542.36
2019-01-25T16:01:06.781Z,98548.80
2019-01-25T16:03:40.775Z,98543.08
2019-01-25T16:06:13.154Z,98541.45
2019-01-25T16:08:45.765Z,98544.92
2019-01-25T16:11:18.522Z,98543.47
2019-01-25T16:13:50.692Z,98543.13
2019-01-25T16:16:22.155Z,98551.98
2019-01-25T16:18:55.548Z,98552.81
2019-01-25T16:21:29.797Z,98556.24
2019-01-25T16:24:03.651Z,98559.34
2019-01-25T16:26:35.475Z,98558.37
2019-01-25T16:29:08.856Z,98555.91
2019-01-25T16:31:42.571Z,98548.10
2019-01-25T16:34:16.576Z,98546.80
2019-01-25T16:36:50.922Z,98553.66
2019-01-25T16:39:24.039Z,98563.14
2019-01-25T16:41:57.863Z,98556.98
2019-01-25T16:44:31.723Z,98560.59
2019-01-25T16:47:03.119Z,98564.20
2019-01-25T16:49:36.744Z,98561.62
2019-01-25T16:52:08.029Z,98567.66
2019-01-25T16:54:44.293Z,98581.39
2019-01-25T16:57:17.851Z,98578.59
2019-01-25T16:59:49.288Z,98576.65
2019-01-25T17:02:20.699Z,98581.26
2019-01-25T17:04:53.748Z,98592.16
2019-01-25T17:07:26.727Z,98592.51
2019-01-25T17:09:59.010Z,98591.62
2019-01-25T17:12:33.024Z,98586.16
2019-01-25T17:15:05.150Z,98588.52
2019-01-25T17:17:37.908Z,98592.47
2019-01-25T17:20:17.253Z,98593.48
2019-01-25T17:22:44.994Z,98593.48
2019-01-25T17:25:16.754Z,98599.83
2019-01-25T17:27:48.472Z,98597.73
2019-01-25T17:30:23.367Z,98597.22
2019-01-25T17:32:55.815Z,98600.98
2019-01-25T17:35:29.385Z,98595.53
2019-01-25T17:38:04.052Z,98594.38
2019-01-25T17:40:46.472Z,98586.86
2019-01-25T17:43:15.008Z,98592.25
2019-01-25T17:45:47.108Z,98589.14
2019-01-25T17:48:21.084Z,98595.64
2019-01-25T17:50:56.670Z,98594.48
2019-01-25T17:53:29.021Z,98593.66
2019-01-25T17:56:04.740Z,98597.53
2019-01-25T17:58:39.421Z,98593.62
2019-01-25T18:01:11.425Z,98592.48
2019-01-25T18:03:42.769Z,98593.03
2019-01-25T18:06:15.034Z,98594.19
2019-01-25T18:08:47.100Z,98592.94
2019-01-25T18:11:22.669Z,98584.46
2019-01-25T18:13:55.560Z,98589.55
2019-01-25T18:16:30.888Z,98588.09
2019-01-25T18:19:02.198Z,98585.85
2019-01-25T18:21:36.361Z,98588.38
2019-01-25T18:24:07.761Z,98596.98
2019-01-25T18:26:41.151Z,98601.28
2019-01-25T18:29:30.907Z,98602.26
2019-01-25T18:32:05.457Z,98605.73
2019-01-25T18:34:38.234Z,98601.35
2019-01-25T18:37:10.640Z,98603.66
2019-01-25T18:39:42.327Z,98602.02
2019-01-25T18:42:13.781Z,98599.73
2019-01-25T18:44:45.050Z,98609.40
2019-01-25T18:47:18.413Z,98606.27
2019-01-25T18:49:50.100Z,98601.71
2019-01-25T18:52:23.325Z,98600.25
2019-01-25T18:54:57.439Z,98599.07
2019-01-25T18:57:31.423Z,98599.07
2019-01-25T19:00:09.423Z,98610.38
2019-01-25T19:02:43.302Z,98606.27
2019-01-25T19:05:15.112Z,98606.32
2019-01-25T19:07:48.254Z,98606.32
2019-01-25T19:10:23.762Z,98601.77
2019-01-25T19:12:55.007Z,98600.45
2019-01-25T19:15:30.660Z,98604.88
2019-01-25T19:18:02.463Z,98606.66
2019-01-25T19:20:36.492Z,98612.39
2019-01-25T19:23:07.881Z,98603.38
2019-01-25T19:25:41.484Z,98604.19
2019-01-25T19:28:14.399Z,98607.63
2019-01-25T19:30:47.007Z,98609.59
2019-01-25T19:33:20.553Z,98612.88
2019-01-25T19:35:54.398Z,98618.25
2019-01-25T19:38:25.665Z,98623.34
2019-01-25T19:40:59.543Z,98623.35
2019-01-25T19:43:33.474Z,98625.45
2019-01-25T19:46:07.366Z,98624.30
2019-01-25T19:48:38.669Z,98630.50
2019-01-25T19:51:13.249Z,98627.25
2019-01-25T19:53:45.375Z,98623.52
2019-01-25T19:56:17.714Z,98624.31
2019-01-25T19:58:51.352Z,98624.81
2019-01-25T20:01:26.084Z,98629.72
2019-01-25T20:03:57.646Z,98628.91
2019-01-25T20:06:29.746Z,98630.69
2019-01-25T20:09:01.154Z,98630.19
2019-01-25T20:11:32.669Z,98637.69
2019-01-25T20:14:06.140Z,98645.55
2019-01-25T20:16:39.811Z,98641.95
2019-01-25T20:19:11.688Z,98632.50
2019-01-25T20:21:45.924Z,98632.11
2019-01-25T20:24:17.835Z,98643.91
2019-01-25T20:26:49.857Z,98638.84
2019-01-25T20:29:23.815Z,98635.92
2019-01-25T20:31:55.074Z,98644.56
2019-01-25T20:34:30.117Z,98646.02
2019-01-25T20:37:02.806Z,98645.87
2019-01-25T20:39:36.949Z,98649.12
2019-01-25T20:42:08.347Z,98648.16
2019-01-25T20:44:41.697Z,98644.58
2019-01-25T20:47:15.250Z,98651.41
2019-01-25T20:49:46.575Z,98641.63
2019-01-25T20:52:17.837Z,98649.78
2019-01-25T20:54:51.911Z,98638.03
2019-01-25T20:57:26.215Z,98639.02
2019-01-25T21:00:00.311Z,98645.38
2019-01-25T21:02:32.381Z,98642.61
2019-01-25T21:05:05.319Z,98630.53
2019-01-25T21:07:37.847Z,98633.44
2019-01-25T21:10:12.590Z,98635.58
2019-01-25T21:12:46.588Z,98625.80
2019-01-25T21:15:19.827Z,98626.58
2019-01-25T21:17:54.027Z,98629.04
2019-01-25T21:20:33.784Z,98630.04
2019-01-25T21:23:08.722Z,98619.09
2019-01-25T21:25:42.020Z,98618.78
2019-01-25T21:28:15.478Z,98616.17
2019-01-25T21:30:47.410Z,98603.22
2019-01-25T21:33:22.412Z,98598.98
2019-01-25T21:35:55.518Z,98605.19
2019-01-25T21:38:31.800Z,98604.38
2019-01-25T21:41:03.870Z,98600.63
2019-01-25T21:43:37.029Z,98604.19
2019-01-25T21:46:11.404Z,98610.22
2019-01-25T21:48:44.971Z,98613.16
2019-01-25T21:51:18.029Z,98612.16
2019-01-25T21:53:52.310Z,98613.85
2019-01-25T21:56:25.674Z,98611.00
2019-01-25T21:58:57.314Z,98606.81
2019-01-25T22:01:28.789Z,98608.00
2019-01-25T22:04:02.156Z,98607.22
2019-01-25T22:06:36.251Z,98608.01
2019-01-25T22:09:11.582Z,98606.39
2019-01-25T22:11:44.312Z,98605.58
2019-01-25T22:14:17.304Z,98607.55
2019-01-25T22:16:49.133Z,98602.81
2019-01-25T22:19:20.850Z,98600.56
2019-01-25T22:21:52.208Z,98607.91
2019-01-25T22:24:25.158Z,98609.88
2019-01-25T22:26:59.351Z,98605.98
2019-01-25T22:29:33.284Z,98601.06
2019-01-25T22:32:05.264Z,98591.44
2019-01-25T22:34:38.305Z,98593.90
2019-01-25T22:37:12.390Z,98587.85
2019-01-25T22:39:43.742Z,98482.05
2019-01-25T22:42:17.193Z,98590.31
2019-01-25T22:44:49.437Z,98587.36
2019-01-25T22:47:22.313Z,98587.03
2019-01-25T22:49:56.240Z,98583.45
2019-01-25T22:52:28.550Z,98584.23
2019-01-25T22:55:01.614Z,98579.19
2019-01-25T22:57:35.255Z,98574.78
2019-01-25T23:00:15.408Z,98578.89
2019-01-25T23:02:49.375Z,98575.94
2019-01-25T23:05:55.963Z,98568.74
2019-01-25T23:08:27.432Z,98572.66
2019-01-25T23:11:01.509Z,98561.20
2019-01-25T23:13:35.660Z,98551.42
2019-01-25T23:16:09.431Z,98560.90
2019-01-25T23:18:43.344Z,98565.16
2019-01-25T23:21:14.678Z,98545.58
2019-01-25T23:23:48.510Z,98545.58
2019-01-25T23:26:22.478Z,98547.61
2019-01-25T23:28:53.731Z,98545.96
2019-01-25T23:31:27.552Z,98546.64
2019-01-25T23:34:00.608Z,98537.04
2019-01-25T23:36:33.430Z,98533.92
2019-01-25T23:39:09.843Z,98533.11
2019-01-25T23:41:43.618Z,98523.49
2019-01-25T23:44:15.574Z,98523.66
2019-01-25T23:46:46.891Z,98515.36
2019-01-25T23:49:18.638Z,98509.65
2019-01-25T23:51:52.743Z,98507.03
2019-01-25T23:54:24.914Z,98503.58
2019-01-25T23:56:58.054Z,98504.08
2019-01-25T23:59:29.323Z,98496.09
